createdAt,value
2023-02-02T00:02:09.247Z,6.40
2023-02-02T00:04:36.694Z,6.30
2023-02-02T00:07:05.481Z,6.40
2023-02-02T00:09:33.029Z,6.40
2023-02-02T00:12:01.053Z,6.40
2023-02-02T00:14:28.273Z,6.40
2023-02-02T00:16:56.315Z,6.40
2023-02-02T00:19:30.040Z,6.50
2023-02-02T00:21:57.275Z,6.40
2023-02-02T00:24:24.734Z,6.60
2023-02-02T00:26:54.059Z,6.60
2023-02-02T00:29:29.155Z,6.60
2023-02-02T00:31:55.926Z,6.50
2023-02-02T00:34:23.154Z,6.50
2023-02-02T00:36:50.732Z,6.50
2023-02-02T00:39:22.988Z,6.60
2023-02-02T00:41:49.706Z,6.50
2023-02-02T00:44:34.956Z,6.70
2023-02-02T00:47:02.440Z,6.70
2023-02-02T00:49:29.139Z,6.70
2023-02-02T00:51:55.875Z,6.70
2023-02-02T00:54:22.674Z,6.60
2023-02-02T00:56:49.356Z,6.60
2023-02-02T00:59:16.065Z,6.60
2023-02-02T01:01:42.743Z,6.60
2023-02-02T01:04:09.536Z,6.50
2023-02-02T01:06:36.176Z,6.60
2023-02-02T01:09:03.698Z,6.50
2023-02-02T01:11:30.844Z,6.50
2023-02-02T01:13:57.924Z,6.60
2023-02-02T01:16:24.939Z,6.60
2023-02-02T01:18:52.225Z,6.50
2023-02-02T01:21:19.319Z,6.50
2023-02-02T01:23:46.316Z,6.60
2023-02-02T01:26:14.031Z,6.60
2023-02-02T01:28:41.217Z,6.60
2023-02-02T01:31:11.158Z,6.70
2023-02-02T01:33:38.512Z,6.70
2023-02-02T01:36:08.763Z,6.60
2023-02-02T01:38:35.755Z,6.50
2023-02-02T01:41:04.477Z,6.50
2023-02-02T01:43:52.663Z,6.50
2023-02-02T01:46:22.194Z,6.50
2023-02-02T01:49:06.232Z,6.50
2023-02-02T01:51:44.274Z,6.50
2023-02-02T01:54:18.801Z,6.40
2023-02-02T01:56:57.545Z,6.30
2023-02-02T01:59:25.576Z,6.40
2023-02-02T02:01:54.807Z,6.50
2023-02-02T02:04:23.379Z,6.40
2023-02-02T02:06:52.555Z,6.50
2023-02-02T02:09:20.501Z,6.50
2023-02-02T02:11:47.326Z,6.60
2023-02-02T02:14:34.367Z,6.40
2023-02-02T02:17:20.877Z,6.40
2023-02-02T02:20:24.903Z,6.50
2023-02-02T02:23:52.189Z,6.50
2023-02-02T02:26:43.219Z,6.30
2023-02-02T02:30:01.734Z,6.20
2023-02-02T02:32:46.315Z,6.20
2023-02-02T02:35:36.013Z,6.20
2023-02-02T02:38:19.674Z,6.10
2023-02-02T02:40:53.775Z,6.20
2023-02-02T02:43:49.169Z,6.30
2023-02-02T02:46:16.221Z,6.20
2023-02-02T02:48:45.494Z,6.30
2023-02-02T02:51:44.453Z,6.40
2023-02-02T02:54:30.820Z,6.40
2023-02-02T02:57:00.473Z,6.40
2023-02-02T03:00:07.961Z,6.40
2023-02-02T03:03:09.210Z,6.40
2023-02-02T03:05:56.860Z,6.40
2023-02-02T03:08:31.675Z,6.50
2023-02-02T03:11:02.175Z,6.50
2023-02-02T03:13:29.475Z,6.40
2023-02-02T03:15:56.243Z,6.40
2023-02-02T03:18:27.406Z,6.40
2023-02-02T03:20:54.075Z,6.50
2023-02-02T03:23:21.539Z,6.40
2023-02-02T03:25:48.418Z,6.50
2023-02-02T03:28:16.665Z,6.50
2023-02-02T03:30:44.982Z,6.60
2023-02-02T03:33:14.017Z,6.60
2023-02-02T03:35:40.989Z,6.50
2023-02-02T03:38:08.917Z,6.50
2023-02-02T03:40:35.670Z,6.40
2023-02-02T03:43:02.923Z,6.50
2023-02-02T03:45:30.346Z,6.50
2023-02-02T03:47:56.984Z,6.50
2023-02-02T03:50:25.139Z,6.60
2023-02-02T03:52:51.761Z,6.60
2023-02-02T03:55:18.433Z,6.40
2023-02-02T03:57:45.039Z,6.40
2023-02-02T04:00:12.116Z,6.50
2023-02-02T04:02:39.123Z,6.40
2023-02-02T04:05:06.099Z,6.50
2023-02-02T04:07:32.733Z,6.70
2023-02-02T04:09:59.374Z,6.70
2023-02-02T04:12:25.998Z,6.70
2023-02-02T04:14:52.650Z,6.70
2023-02-02T04:17:19.283Z,6.70
2023-02-02T04:19:45.991Z,6.70
2023-02-02T04:22:12.618Z,6.60
2023-02-02T04:24:39.306Z,6.40
2023-02-02T04:27:05.910Z,6.50
2023-02-02T04:29:32.551Z,6.50
2023-02-02T04:31:59.224Z,6.40
2023-02-02T04:34:25.908Z,6.40
2023-02-02T04:36:52.582Z,6.40
2023-02-02T04:39:19.228Z,6.40
2023-02-02T04:41:45.850Z,6.50
2023-02-02T04:44:17.305Z,6.50
2023-02-02T04:46:44.262Z,6.40
2023-02-02T04:49:12.157Z,6.50
2023-02-02T04:51:40.233Z,6.50
2023-02-02T04:54:07.939Z,6.50
2023-02-02T04:56:35.221Z,6.50
2023-02-02T04:59:02.019Z,6.50
2023-02-02T05:01:30.723Z,6.40
2023-02-02T05:03:58.034Z,6.30
2023-02-02T05:06:24.806Z,6.40
2023-02-02T05:08:51.496Z,6.50
2023-02-02T05:11:20.691Z,6.40
2023-02-02T05:13:49.032Z,6.40
2023-02-02T05:16:16.474Z,6.40
2023-02-02T05:18:43.622Z,6.40
2023-02-02T05:21:10.497Z,6.50
2023-02-02T05:23:37.156Z,6.60
2023-02-02T05:26:04.163Z,6.60
2023-02-02T05:28:31.100Z,6.60
2023-02-02T05:30:57.898Z,6.60
2023-02-02T05:33:24.606Z,6.60
2023-02-02T05:35:51.725Z,6.50
2023-02-02T05:38:18.367Z,6.50
2023-02-02T05:40:45.114Z,6.50
2023-02-02T05:43:11.767Z,6.40
2023-02-02T05:45:38.687Z,6.40
2023-02-02T05:48:05.551Z,6.50
2023-02-02T05:50:32.213Z,6.50
2023-02-02T05:53:04.183Z,6.60
2023-02-02T05:55:30.902Z,6.50
2023-02-02T05:57:57.558Z,6.30
2023-02-02T06:00:24.345Z,6.30
2023-02-02T06:02:51.075Z,6.30
2023-02-02T06:05:17.827Z,6.20
2023-02-02T06:07:44.463Z,6.40
2023-02-02T06:10:11.203Z,6.50
2023-02-02T06:12:37.921Z,6.60
2023-02-02T06:15:06.122Z,6.60
2023-02-02T06:17:32.775Z,6.50
2023-02-02T06:19:59.492Z,6.40
2023-02-02T06:22:26.177Z,6.40
2023-02-02T06:24:53.430Z,6.50
2023-02-02T06:27:20.963Z,6.50
2023-02-02T06:29:47.993Z,6.50
2023-02-02T06:32:14.652Z,6.50
2023-02-02T06:34:41.369Z,6.50
2023-02-02T06:37:08.062Z,6.40
2023-02-02T06:39:34.683Z,6.50
2023-02-02T06:42:11.954Z,6.50
2023-02-02T06:44:46.959Z,6.50
2023-02-02T06:47:13.655Z,6.60
2023-02-02T06:49:40.385Z,6.60
2023-02-02T06:52:07.462Z,6.60
2023-02-02T06:54:34.293Z,6.60
2023-02-02T06:57:00.967Z,6.60
2023-02-02T06:59:27.700Z,6.50
2023-02-02T07:01:54.603Z,6.60
2023-02-02T07:04:21.753Z,6.50
2023-02-02T07:06:48.609Z,6.40
2023-02-02T07:09:15.237Z,6.30
2023-02-02T07:11:45.496Z,6.20
2023-02-02T07:14:12.684Z,6.20
2023-02-02T07:16:39.415Z,6.10
2023-02-02T07:19:06.130Z,6.20
2023-02-02T07:21:36.332Z,6.20
2023-02-02T07:24:05.226Z,6.20
2023-02-02T07:26:33.935Z,6.30
2023-02-02T07:29:00.614Z,6.30
2023-02-02T07:31:27.882Z,6.40
2023-02-02T07:33:54.607Z,6.40
2023-02-02T07:36:23.765Z,6.40
2023-02-02T07:38:54.236Z,6.40
2023-02-02T07:41:21.750Z,6.40
2023-02-02T07:43:48.979Z,6.50
2023-02-02T07:46:16.725Z,6.60
2023-02-02T07:48:43.602Z,6.70
2023-02-02T07:51:13.407Z,6.70
2023-02-02T07:53:47.225Z,6.60
2023-02-02T07:56:21.375Z,6.60
2023-02-02T07:58:48.351Z,6.60
2023-02-02T08:01:16.078Z,6.60
2023-02-02T08:03:43.387Z,6.60
2023-02-02T08:06:32.126Z,6.70
2023-02-02T08:08:59.605Z,6.70
2023-02-02T08:11:27.722Z,6.70
2023-02-02T08:13:57.187Z,6.80
2023-02-02T08:16:24.964Z,6.80
2023-02-02T08:18:52.219Z,6.80
2023-02-02T08:21:19.525Z,6.80
2023-02-02T08:23:46.823Z,6.80
2023-02-02T08:26:23.070Z,6.80
2023-02-02T08:28:54.238Z,7.00
2023-02-02T08:31:23.846Z,7.00
2023-02-02T08:33:51.499Z,6.90
2023-02-02T08:36:20.931Z,6.90
2023-02-02T08:38:48.228Z,6.90
2023-02-02T08:41:19.116Z,6.90
2023-02-02T08:43:45.997Z,7.00
2023-02-02T08:46:14.933Z,7.00
2023-02-02T08:48:41.895Z,6.90
2023-02-02T08:51:12.007Z,7.00
2023-02-02T08:53:39.032Z,7.00
2023-02-02T08:56:11.492Z,7.00
2023-02-02T08:58:38.684Z,7.00
2023-02-02T09:01:13.087Z,6.90
2023-02-02T09:03:40.389Z,7.10
2023-02-02T09:06:08.808Z,7.10
2023-02-02T09:08:35.943Z,7.20
2023-02-02T09:11:07.762Z,7.30
2023-02-02T09:13:35.258Z,7.20
2023-02-02T09:16:04.030Z,7.30
2023-02-02T09:18:31.017Z,7.30
2023-02-02T09:21:03.343Z,7.30
2023-02-02T09:23:31.535Z,7.60
2023-02-02T09:26:08.405Z,7.70
2023-02-02T09:28:35.079Z,7.80
2023-02-02T09:31:02.332Z,7.80
2023-02-02T09:33:29.049Z,8.00
2023-02-02T09:35:55.715Z,8.10
2023-02-02T09:38:22.419Z,8.20
2023-02-02T09:40:49.101Z,8.10
2023-02-02T09:43:24.679Z,7.90
2023-02-02T09:46:10.243Z,7.90
2023-02-02T09:49:08.856Z,7.90
2023-02-02T09:51:40.927Z,7.90
2023-02-02T09:54:36.445Z,7.70
2023-02-02T09:57:10.456Z,7.70
2023-02-02T09:59:41.671Z,7.70
2023-02-02T10:02:20.909Z,7.70
2023-02-02T10:04:55.782Z,7.60
2023-02-02T10:07:33.562Z,7.70
2023-02-02T10:10:10.800Z,7.70
2023-02-02T10:13:02.956Z,7.70
2023-02-02T10:16:13.696Z,7.70
2023-02-02T10:18:53.505Z,7.60
2023-02-02T10:21:35.567Z,7.60
2023-02-02T10:24:04.300Z,7.30
2023-02-02T10:26:39.262Z,7.40
2023-02-02T10:29:23.684Z,7.40
2023-02-02T10:32:23.728Z,7.60
2023-02-02T10:34:52.303Z,7.70
2023-02-02T10:37:38.311Z,7.70
2023-02-02T10:40:21.698Z,7.60
2023-02-02T10:43:28.299Z,7.60
2023-02-02T10:45:56.620Z,7.50
2023-02-02T10:48:34.390Z,7.40
2023-02-02T10:51:13.993Z,7.50
2023-02-02T10:53:46.804Z,7.60
2023-02-02T10:56:14.112Z,7.60
2023-02-02T10:58:51.795Z,7.80
2023-02-02T11:01:22.517Z,7.90
2023-02-02T11:04:09.951Z,7.90
2023-02-02T11:06:49.454Z,7.90
2023-02-02T11:09:23.740Z,7.90
2023-02-02T11:11:57.364Z,8.00
2023-02-02T11:14:45.457Z,8.10
2023-02-02T11:17:24.258Z,8.10
2023-02-02T11:19:52.105Z,8.00
2023-02-02T11:22:34.099Z,8.10
2023-02-02T11:25:06.599Z,8.30
2023-02-02T11:27:38.023Z,8.40
2023-02-02T11:30:35.927Z,8.40
2023-02-02T11:33:33.670Z,8.60
2023-02-02T11:36:21.399Z,8.50
2023-02-02T11:38:48.106Z,8.60
2023-02-02T11:41:17.002Z,8.50
2023-02-02T11:43:52.652Z,8.50
2023-02-02T11:46:23.556Z,8.40
2023-02-02T11:48:59.040Z,8.50
2023-02-02T11:51:27.404Z,8.30
2023-02-02T11:54:07.670Z,8.20
2023-02-02T11:56:39.219Z,8.20
2023-02-02T11:59:06.077Z,8.20
2023-02-02T12:01:34.268Z,8.00
2023-02-02T12:04:23.663Z,8.10
2023-02-02T12:06:50.615Z,8.10
2023-02-02T12:09:23.730Z,8.00
2023-02-02T12:12:17.856Z,8.00
2023-02-02T12:14:50.272Z,8.00
2023-02-02T12:17:42.012Z,8.10
2023-02-02T12:20:40.969Z,8.10
2023-02-02T12:23:47.474Z,8.10
2023-02-02T12:26:31.675Z,8.10
2023-02-02T12:29:14.539Z,8.10
2023-02-02T12:31:56.773Z,8.20
2023-02-02T12:34:40.485Z,8.10
2023-02-02T12:37:22.269Z,8.20
2023-02-02T12:40:16.468Z,8.10
2023-02-02T12:43:07.256Z,8.10
2023-02-02T12:46:15.085Z,8.20
2023-02-02T12:48:53.792Z,8.20
2023-02-02T12:51:37.079Z,8.30
2023-02-02T12:54:32.601Z,8.30
2023-02-02T12:57:34.899Z,8.30
2023-02-02T13:00:35.298Z,8.30
2023-02-02T13:03:30.031Z,8.30
2023-02-02T13:06:23.390Z,8.30
2023-02-02T13:09:05.677Z,8.20
2023-02-02T13:11:49.754Z,8.30
2023-02-02T13:14:23.643Z,8.20
2023-02-02T13:16:56.908Z,8.40
2023-02-02T13:19:28.745Z,8.50
2023-02-02T13:21:58.721Z,8.50
2023-02-02T13:24:31.558Z,8.40
2023-02-02T13:27:02.002Z,8.30
2023-02-02T13:29:47.993Z,8.30
2023-02-02T13:32:29.617Z,8.40
2023-02-02T13:35:02.067Z,8.50
2023-02-02T13:37:37.233Z,8.70
2023-02-02T13:40:28.830Z,8.80
2023-02-02T13:43:14.247Z,8.70
2023-02-02T13:45:56.227Z,8.80
2023-02-02T13:48:41.872Z,9.00
2023-02-02T13:51:33.399Z,8.90
2023-02-02T13:54:37.458Z,8.80
2023-02-02T13:57:25.851Z,8.80
2023-02-02T14:00:19.551Z,8.80
2023-02-02T14:03:05.098Z,8.90
2023-02-02T14:05:41.371Z,8.80
2023-02-02T14:08:16.611Z,8.90
2023-02-02T14:10:57.240Z,9.00
2023-02-02T14:13:55.112Z,8.60
2023-02-02T14:16:44.472Z,8.50
2023-02-02T14:19:40.852Z,8.50
2023-02-02T14:22:12.041Z,8.60
2023-02-02T14:24:43.983Z,8.60
2023-02-02T14:27:10.771Z,8.90
2023-02-02T14:29:58.785Z,9.00
2023-02-02T14:32:27.593Z,9.00
2023-02-02T14:34:56.350Z,8.90
2023-02-02T14:37:29.730Z,9.00
2023-02-02T14:40:06.105Z,9.00
2023-02-02T14:42:57.513Z,9.00
2023-02-02T14:45:29.962Z,9.10
2023-02-02T14:48:21.196Z,9.20
2023-02-02T14:50:57.944Z,9.00
2023-02-02T14:53:37.218Z,9.10
2023-02-02T14:56:04.055Z,9.10
2023-02-02T14:58:34.050Z,8.80
2023-02-02T15:01:18.033Z,8.60
2023-02-02T15:03:57.657Z,8.80
2023-02-02T15:06:33.697Z,8.70
2023-02-02T15:09:23.175Z,8.70
2023-02-02T15:12:00.863Z,8.50
2023-02-02T15:14:38.784Z,8.40
2023-02-02T15:17:33.329Z,8.40
2023-02-02T15:20:08.742Z,8.40
2023-02-02T15:22:58.078Z,8.40
2023-02-02T15:25:48.254Z,8.40
2023-02-02T15:28:24.022Z,8.40
2023-02-02T15:30:56.683Z,8.40
2023-02-02T15:33:30.700Z,8.30
2023-02-02T15:36:05.618Z,8.20
2023-02-02T15:38:36.161Z,8.00
2023-02-02T15:41:16.078Z,7.90
2023-02-02T15:43:43.320Z,8.00
2023-02-02T15:46:16.080Z,7.90
2023-02-02T15:48:43.938Z,7.90
2023-02-02T15:51:17.702Z,8.00
2023-02-02T15:53:44.354Z,8.10
2023-02-02T15:56:29.643Z,7.90
2023-02-02T15:58:59.377Z,8.00
2023-02-02T16:01:29.255Z,7.90
2023-02-02T16:04:38.930Z,7.90
2023-02-02T16:07:09.876Z,7.90
2023-02-02T16:09:37.376Z,7.80
2023-02-02T16:12:06.024Z,7.90
2023-02-02T16:14:38.273Z,8.00
2023-02-02T16:17:12.603Z,8.00
2023-02-02T16:19:42.887Z,7.80
2023-02-02T16:22:15.962Z,7.80
2023-02-02T16:24:50.120Z,7.80
2023-02-02T16:27:21.375Z,7.70
2023-02-02T16:29:49.403Z,7.60
2023-02-02T16:32:37.144Z,7.50
2023-02-02T16:35:07.132Z,7.60
2023-02-02T16:37:36.378Z,7.70
2023-02-02T16:40:27.641Z,7.60
2023-02-02T16:43:20.710Z,7.60
2023-02-02T16:46:21.201Z,7.40
2023-02-02T16:48:59.918Z,7.60
2023-02-02T16:51:33.889Z,7.60
2023-02-02T16:54:06.989Z,7.70
2023-02-02T16:56:45.172Z,7.80
2023-02-02T16:59:20.307Z,7.70
2023-02-02T17:01:51.573Z,7.80
2023-02-02T17:04:27.328Z,7.80
2023-02-02T17:06:57.098Z,7.70
2023-02-02T17:09:28.610Z,7.60
2023-02-02T17:12:33.323Z,7.70
2023-02-02T17:15:34.145Z,7.60
2023-02-02T17:18:01.892Z,7.60
2023-02-02T17:20:29.082Z,7.40
2023-02-02T17:23:03.122Z,7.40
2023-02-02T17:25:40.674Z,7.50
2023-02-02T17:28:11.961Z,7.40
2023-02-02T17:30:43.464Z,7.50
2023-02-02T17:33:14.594Z,7.40
2023-02-02T17:35:53.763Z,7.60
2023-02-02T17:38:25.301Z,7.40
2023-02-02T17:40:52.902Z,7.20
2023-02-02T17:43:19.924Z,7.20
2023-02-02T17:45:46.778Z,7.30
2023-02-02T17:48:14.175Z,7.30
2023-02-02T17:50:42.305Z,7.30
2023-02-02T17:53:15.034Z,7.30
2023-02-02T17:55:43.579Z,7.20
2023-02-02T17:58:13.149Z,7.20
2023-02-02T18:00:40.772Z,7.20
2023-02-02T18:03:12.924Z,7.10
2023-02-02T18:05:43.085Z,7.30
2023-02-02T18:08:11.748Z,7.20
2023-02-02T18:10:38.860Z,7.30
2023-02-02T18:13:05.577Z,7.30
2023-02-02T18:15:32.734Z,7.10
2023-02-02T18:18:01.345Z,7.10
2023-02-02T18:20:28.191Z,7.10
2023-02-02T18:22:54.823Z,6.90
2023-02-02T18:25:21.579Z,6.90
2023-02-02T18:27:50.559Z,7.10
2023-02-02T18:30:17.332Z,7.10
2023-02-02T18:32:44.540Z,7.10
2023-02-02T18:35:12.329Z,7.20
2023-02-02T18:37:39.274Z,7.10
2023-02-02T18:40:08.036Z,7.00
2023-02-02T18:42:36.187Z,7.00
2023-02-02T18:45:04.734Z,6.90
2023-02-02T18:47:31.348Z,7.00
2023-02-02T18:49:58.052Z,6.80
2023-02-02T18:52:24.813Z,6.70
2023-02-02T18:54:51.573Z,6.80
2023-02-02T18:57:18.408Z,6.80
2023-02-02T18:59:45.102Z,6.80
2023-02-02T19:02:17.473Z,6.80
2023-02-02T19:05:04.765Z,6.80
2023-02-02T19:07:50.888Z,6.60
2023-02-02T19:10:18.564Z,6.70
2023-02-02T19:12:55.645Z,6.80
2023-02-02T19:15:23.067Z,6.70
2023-02-02T19:17:53.273Z,6.80
2023-02-02T19:20:25.256Z,6.70
2023-02-02T19:23:15.499Z,6.80
2023-02-02T19:25:51.101Z,6.80
2023-02-02T19:28:29.104Z,6.90
2023-02-02T19:30:58.056Z,7.10
2023-02-02T19:33:39.463Z,7.10
2023-02-02T19:36:12.945Z,6.90
2023-02-02T19:38:39.578Z,7.00
2023-02-02T19:41:23.975Z,6.90
2023-02-02T19:43:59.571Z,6.90
2023-02-02T19:46:29.504Z,6.90
2023-02-02T19:49:11.543Z,7.00
2023-02-02T19:51:45.369Z,6.90
2023-02-02T19:54:41.941Z,7.00
2023-02-02T19:57:21.278Z,7.00
2023-02-02T19:59:51.262Z,7.00
2023-02-02T20:02:53.229Z,6.90
2023-02-02T20:05:22.614Z,6.70
2023-02-02T20:08:19.664Z,6.70
2023-02-02T20:10:46.553Z,6.80
2023-02-02T20:13:16.541Z,6.90
2023-02-02T20:15:43.524Z,7.00
2023-02-02T20:18:27.048Z,6.80
2023-02-02T20:20:57.428Z,7.00
2023-02-02T20:23:27.133Z,6.90
2023-02-02T20:25:53.791Z,6.90
2023-02-02T20:28:34.434Z,6.80
2023-02-02T20:31:05.342Z,6.90
2023-02-02T20:33:33.151Z,7.00
2023-02-02T20:36:02.462Z,7.10
2023-02-02T20:38:37.285Z,7.00
2023-02-02T20:41:05.762Z,7.00
2023-02-02T20:43:32.438Z,7.00
2023-02-02T20:45:59.186Z,7.10
2023-02-02T20:48:27.503Z,7.10
2023-02-02T20:50:54.231Z,7.10
2023-02-02T20:53:21.537Z,7.20
2023-02-02T20:55:48.439Z,7.10
2023-02-02T20:58:15.233Z,7.10
2023-02-02T21:00:42.057Z,7.10
2023-02-02T21:03:08.698Z,7.20
2023-02-02T21:05:35.462Z,7.10
2023-02-02T21:08:02.129Z,6.90
2023-02-02T21:10:29.158Z,7.00
2023-02-02T21:12:56.073Z,6.90
2023-02-02T21:15:23.414Z,7.00
2023-02-02T21:17:50.037Z,6.90
2023-02-02T21:20:17.040Z,6.90
2023-02-02T21:22:43.824Z,7.00
2023-02-02T21:25:10.897Z,7.10
2023-02-02T21:27:41.149Z,6.90
2023-02-02T21:30:12.195Z,7.10
2023-02-02T21:32:38.838Z,7.00
2023-02-02T21:35:06.528Z,7.10
2023-02-02T21:37:36.721Z,6.90
2023-02-02T21:40:13.033Z,7.10
2023-02-02T21:42:45.075Z,6.90
2023-02-02T21:45:20.653Z,6.90
2023-02-02T21:47:53.335Z,6.90
2023-02-02T21:50:25.330Z,6.80
2023-02-02T21:53:07.561Z,7.00
2023-02-02T21:55:36.904Z,7.10
2023-02-02T21:58:31.370Z,6.90
2023-02-02T22:01:03.102Z,7.00
2023-02-02T22:03:38.197Z,6.90
2023-02-02T22:06:04.808Z,7.10
2023-02-02T22:08:37.026Z,7.10
2023-02-02T22:11:03.859Z,7.00
2023-02-02T22:13:34.577Z,6.90
2023-02-02T22:16:02.018Z,7.10
2023-02-02T22:18:29.616Z,7.00
2023-02-02T22:20:56.753Z,7.00
2023-02-02T22:23:28.631Z,7.10
2023-02-02T22:25:57.772Z,7.10
2023-02-02T22:28:27.202Z,7.10
2023-02-02T22:30:55.579Z,7.20
2023-02-02T22:33:23.233Z,7.10
2023-02-02T22:35:49.984Z,7.10
2023-02-02T22:38:18.890Z,7.10
2023-02-02T22:40:46.514Z,7.00
2023-02-02T22:43:16.058Z,7.10
2023-02-02T22:45:43.871Z,7.10
2023-02-02T22:48:12.011Z,7.10
2023-02-02T22:50:38.990Z,7.30
2023-02-02T22:53:06.084Z,7.20
2023-02-02T22:55:33.148Z,7.30
2023-02-02T22:57:59.995Z,7.20
2023-02-02T23:00:29.195Z,7.20
2023-02-02T23:02:56.813Z,7.30
2023-02-02T23:05:25.128Z,7.30
2023-02-02T23:07:53.382Z,7.20
2023-02-02T23:10:24.225Z,7.20
2023-02-02T23:12:53.604Z,7.20
2023-02-02T23:15:21.128Z,7.20
2023-02-02T23:17:48.340Z,7.30
2023-02-02T23:20:15.927Z,7.30
2023-02-02T23:22:42.857Z,7.30
2023-02-02T23:25:10.430Z,7.10
2023-02-02T23:27:37.483Z,7.20
2023-02-02T23:30:05.509Z,7.20
2023-02-02T23:32:32.193Z,7.20
2023-02-02T23:34:58.855Z,7.20
2023-02-02T23:37:25.542Z,7.30
2023-02-02T23:39:52.170Z,7.20
2023-02-02T23:42:18.863Z,7.10
2023-02-02T23:44:45.498Z,7.10
2023-02-02T23:47:12.259Z,7.30
2023-02-02T23:49:39.434Z,7.20
2023-02-02T23:52:06.745Z,7.00
2023-02-02T23:54:33.867Z,7.00
2023-02-02T23:57:01.040Z,7.10
2023-02-02T23:59:27.776Z,7.10
